createdAt,value
2022-08-17T00:02:25.952Z,18.75
2022-08-17T00:04:54.143Z,18.86
2022-08-17T00:07:20.962Z,18.81
2022-08-17T00:09:47.591Z,18.61
2022-08-17T00:12:42.639Z,18.50
2022-08-17T00:15:01.233Z,18.57
2022-08-17T00:17:27.964Z,18.65
2022-08-17T00:19:54.615Z,18.49
2022-08-17T00:22:33.214Z,18.26
2022-08-17T00:25:05.321Z,18.15
2022-08-17T00:27:31.943Z,18.06
2022-08-17T00:29:58.596Z,18.06
2022-08-17T00:33:12.357Z,18.19
2022-08-17T00:35:15.148Z,18.34
2022-08-17T00:37:42.255Z,18.39
2022-08-17T00:40:12.432Z,18.39
2022-08-17T00:42:39.710Z,18.25
2022-08-17T00:45:09.643Z,18.13
2022-08-17T00:47:36.456Z,18.00
2022-08-17T00:50:05.262Z,18.00
2022-08-17T00:52:37.249Z,18.03
2022-08-17T00:55:06.184Z,18.05
2022-08-17T00:57:38.059Z,18.03
2022-08-17T01:00:14.242Z,17.92
2022-08-17T01:02:43.659Z,17.84
2022-08-17T01:05:15.071Z,17.81
2022-08-17T01:07:43.407Z,17.79
2022-08-17T01:10:59.176Z,17.71
2022-08-17T01:13:02.595Z,17.69
2022-08-17T01:15:31.862Z,17.66
2022-08-17T01:17:58.482Z,17.66
2022-08-17T01:20:25.110Z,17.68
2022-08-17T01:22:52.749Z,17.70
2022-08-17T01:25:20.567Z,17.71
2022-08-17T01:27:48.596Z,17.70
2022-08-17T01:30:58.911Z,17.72
2022-08-17T01:33:02.723Z,17.76
2022-08-17T01:35:29.327Z,17.78
2022-08-17T01:37:56.019Z,17.83
2022-08-17T01:40:29.006Z,17.88
2022-08-17T01:43:00.177Z,17.99
2022-08-17T01:45:30.338Z,18.04
2022-08-17T01:47:57.109Z,18.03
2022-08-17T01:50:27.547Z,18.01
2022-08-17T01:52:59.886Z,18.03
2022-08-17T01:55:41.088Z,18.10
2022-08-17T01:58:09.820Z,18.17
2022-08-17T02:00:59.474Z,18.17
2022-08-17T02:03:27.079Z,18.13
2022-08-17T02:05:53.795Z,18.21
2022-08-17T02:08:36.984Z,18.26
2022-08-17T02:11:14.637Z,18.30
2022-08-17T02:13:41.995Z,18.27
2022-08-17T02:16:08.612Z,18.24
2022-08-17T02:18:35.383Z,18.24
2022-08-17T02:21:02.574Z,18.31
2022-08-17T02:23:32.176Z,18.55
2022-08-17T02:26:00.102Z,18.77
2022-08-17T02:28:28.450Z,18.82
2022-08-17T02:31:01.278Z,18.71
2022-08-17T02:33:41.759Z,18.62
2022-08-17T02:36:11.631Z,18.56
2022-08-17T02:38:39.447Z,18.50
2022-08-17T02:41:06.742Z,18.52
2022-08-17T02:43:33.511Z,18.55
2022-08-17T02:46:00.391Z,18.58
2022-08-17T02:48:31.637Z,18.65
2022-08-17T02:50:59.828Z,18.73
2022-08-17T02:53:27.371Z,18.84
2022-08-17T02:56:00.301Z,18.77
2022-08-17T02:58:35.471Z,18.74
2022-08-17T03:01:04.933Z,18.75
2022-08-17T03:03:32.184Z,18.74
2022-08-17T03:05:58.798Z,18.85
2022-08-17T03:08:25.613Z,18.92
2022-08-17T03:10:52.881Z,18.83
2022-08-17T03:13:20.132Z,18.74
2022-08-17T03:15:48.425Z,18.77
2022-08-17T03:18:19.111Z,18.76
2022-08-17T03:20:58.707Z,18.72
2022-08-17T03:23:27.655Z,18.72
2022-08-17T03:25:57.010Z,18.67
2022-08-17T03:28:24.517Z,18.67
2022-08-17T03:30:52.089Z,18.63
2022-08-17T03:33:19.884Z,18.65
2022-08-17T03:35:46.518Z,18.66
2022-08-17T03:38:17.028Z,18.70
2022-08-17T03:40:56.852Z,18.72
2022-08-17T03:43:31.116Z,18.73
2022-08-17T03:46:29.009Z,18.78
2022-08-17T03:49:26.265Z,18.90
2022-08-17T03:52:15.902Z,18.95
2022-08-17T03:55:02.609Z,18.91
2022-08-17T03:57:30.546Z,18.82
2022-08-17T03:59:57.281Z,18.75
2022-08-17T04:02:34.444Z,18.70
2022-08-17T04:05:01.172Z,18.63
2022-08-17T04:07:30.268Z,18.58
2022-08-17T04:09:58.095Z,18.49
2022-08-17T04:12:25.880Z,18.43
2022-08-17T04:14:54.750Z,18.38
2022-08-17T04:17:28.383Z,18.32
2022-08-17T04:19:56.290Z,18.32
2022-08-17T04:22:30.601Z,18.29
2022-08-17T04:25:15.217Z,18.23
2022-08-17T04:27:41.931Z,18.19
2022-08-17T04:30:09.165Z,18.15
2022-08-17T04:33:06.259Z,18.16
2022-08-17T04:35:40.775Z,18.22
2022-08-17T04:38:10.631Z,18.24
2022-08-17T04:40:55.939Z,18.33
2022-08-17T04:43:25.116Z,18.44
2022-08-17T04:46:04.743Z,18.72
2022-08-17T04:48:36.593Z,19.05
2022-08-17T04:51:25.555Z,19.33
2022-08-17T04:53:55.815Z,19.64
2022-08-17T04:56:25.112Z,19.80
2022-08-17T04:58:55.059Z,19.95
2022-08-17T05:01:23.624Z,20.08
2022-08-17T05:03:53.494Z,20.14
2022-08-17T05:06:20.621Z,20.17
2022-08-17T05:08:47.280Z,20.25
2022-08-17T05:11:14.967Z,20.29
2022-08-17T05:13:41.903Z,20.27
2022-08-17T05:16:09.182Z,20.18
2022-08-17T05:18:37.290Z,20.08
2022-08-17T05:21:04.317Z,20.04
2022-08-17T05:23:41.642Z,20.02
2022-08-17T05:26:25.603Z,20.11
2022-08-17T05:28:54.608Z,20.21
2022-08-17T05:31:23.793Z,20.25
2022-08-17T05:33:50.580Z,20.27
2022-08-17T05:36:41.622Z,20.30
2022-08-17T05:39:04.075Z,20.39
2022-08-17T05:41:30.656Z,20.35
2022-08-17T05:43:57.257Z,20.13
2022-08-17T05:46:28.028Z,19.97
2022-08-17T05:49:03.685Z,19.87
2022-08-17T05:51:57.667Z,19.81
2022-08-17T05:54:36.326Z,19.81
2022-08-17T05:57:44.787Z,19.82
2022-08-17T06:00:31.410Z,19.79
2022-08-17T06:03:16.735Z,19.83
2022-08-17T06:06:06.006Z,19.95
2022-08-17T06:09:11.332Z,20.16
2022-08-17T06:12:00.111Z,20.44
2022-08-17T06:14:54.643Z,20.82
2022-08-17T06:17:25.046Z,21.09
2022-08-17T06:20:08.622Z,21.09
2022-08-17T06:22:41.145Z,21.14
2022-08-17T06:25:42.951Z,21.27
2022-08-17T06:28:14.823Z,21.46
2022-08-17T06:30:59.251Z,21.59
2022-08-17T06:33:34.451Z,21.67
2022-08-17T06:36:28.065Z,21.78
2022-08-17T06:39:16.445Z,21.82
2022-08-17T06:42:05.576Z,21.74
2022-08-17T06:44:52.327Z,21.58
2022-08-17T06:47:50.088Z,21.44
2022-08-17T06:50:35.978Z,21.43
2022-08-17T06:53:13.810Z,21.55
2022-08-17T06:56:09.588Z,21.70
2022-08-17T06:58:40.115Z,21.80
2022-08-17T07:01:26.813Z,21.91
2022-08-17T07:04:06.725Z,21.99
2022-08-17T07:06:53.127Z,22.00
2022-08-17T07:09:31.382Z,22.14
2022-08-17T07:12:04.388Z,22.16
2022-08-17T07:14:50.135Z,22.23
2022-08-17T07:17:19.022Z,22.31
2022-08-17T07:19:49.045Z,22.53
2022-08-17T07:22:21.835Z,22.82
2022-08-17T07:24:58.650Z,22.96
2022-08-17T07:27:51.081Z,22.88
2022-08-17T07:30:22.688Z,22.79
2022-08-17T07:32:53.402Z,22.67
2022-08-17T07:35:37.635Z,22.65
2022-08-17T07:38:24.219Z,22.67
2022-08-17T07:41:02.152Z,22.74
2022-08-17T07:43:38.071Z,22.91
2022-08-17T07:46:42.922Z,22.87
2022-08-17T07:49:09.461Z,22.79
2022-08-17T07:51:48.033Z,22.79
2022-08-17T07:54:22.176Z,22.79
2022-08-17T07:56:57.855Z,22.90
2022-08-17T07:59:40.768Z,23.15
2022-08-17T08:02:38.573Z,23.25
2022-08-17T08:05:13.068Z,23.08
2022-08-17T08:07:51.137Z,23.08
2022-08-17T08:10:27.683Z,23.08
2022-08-17T08:13:15.364Z,23.21
2022-08-17T08:15:54.076Z,23.31
2022-08-17T08:18:54.108Z,23.26
2022-08-17T08:21:22.410Z,23.46
2022-08-17T08:24:09.951Z,23.50
2022-08-17T08:26:47.512Z,23.25
2022-08-17T08:29:40.967Z,23.34
2022-08-17T08:32:25.355Z,23.34
2022-08-17T08:35:22.666Z,23.31
2022-08-17T08:37:58.266Z,23.29
2022-08-17T08:40:45.501Z,23.32
2022-08-17T08:43:27.499Z,23.48
2022-08-17T08:46:34.792Z,23.77
2022-08-17T08:49:59.076Z,24.07
2022-08-17T08:52:48.135Z,24.28
2022-08-17T08:55:17.736Z,24.65
2022-08-17T08:57:52.333Z,25.12
2022-08-17T09:00:23.315Z,25.25
2022-08-17T09:03:51.519Z,25.38
2022-08-17T09:06:33.285Z,25.26
2022-08-17T09:09:16.036Z,24.94
2022-08-17T09:12:02.850Z,25.04
2022-08-17T09:14:50.619Z,25.39
2022-08-17T09:17:21.946Z,25.30
2022-08-17T09:19:55.276Z,25.32
2022-08-17T09:22:42.744Z,24.98
2022-08-17T09:25:14.162Z,24.86
2022-08-17T09:27:53.020Z,24.74
2022-08-17T09:30:20.979Z,24.92
2022-08-17T09:32:55.343Z,24.99
2022-08-17T09:35:36.653Z,25.09
2022-08-17T09:38:32.520Z,24.76
2022-08-17T09:41:31.562Z,24.68
2022-08-17T09:44:31.180Z,24.58
2022-08-17T09:47:12.936Z,24.43
2022-08-17T09:50:00.386Z,24.49
2022-08-17T09:52:31.171Z,24.99
2022-08-17T09:55:00.236Z,26.03
2022-08-17T09:57:58.329Z,26.93
2022-08-17T10:00:30.886Z,27.30
2022-08-17T10:03:08.352Z,26.71
2022-08-17T10:06:10.034Z,26.05
2022-08-17T10:08:42.088Z,25.54
2022-08-17T10:11:33.445Z,25.35
2022-08-17T10:14:36.972Z,25.40
2022-08-17T10:17:09.910Z,25.08
2022-08-17T10:19:44.358Z,25.05
2022-08-17T10:22:44.293Z,25.31
2022-08-17T10:25:53.568Z,25.54
2022-08-17T10:28:28.915Z,25.82
2022-08-17T10:31:30.987Z,26.01
2022-08-17T10:34:11.974Z,26.56
2022-08-17T10:37:04.678Z,27.32
2022-08-17T10:39:52.509Z,27.66
2022-08-17T10:42:34.440Z,28.32
2022-08-17T10:45:18.861Z,27.41
2022-08-17T10:48:07.480Z,28.19
2022-08-17T10:51:00.219Z,28.14
2022-08-17T10:53:32.654Z,28.73
2022-08-17T10:56:14.525Z,29.08
2022-08-17T10:58:56.118Z,29.16
2022-08-17T11:01:43.434Z,29.59
2022-08-17T11:04:25.181Z,29.06
2022-08-17T11:07:13.014Z,28.37
2022-08-17T11:10:23.756Z,28.81
2022-08-17T11:12:55.332Z,28.75
2022-08-17T11:15:41.324Z,29.28
2022-08-17T11:18:29.823Z,29.40
2022-08-17T11:20:59.653Z,29.48
2022-08-17T11:23:44.974Z,29.21
2022-08-17T11:26:25.959Z,29.07
2022-08-17T11:28:58.910Z,28.84
2022-08-17T11:31:39.102Z,29.08
2022-08-17T11:34:17.212Z,29.16
2022-08-17T11:36:57.167Z,29.02
2022-08-17T11:39:50.576Z,29.26
2022-08-17T11:42:37.490Z,28.91
2022-08-17T11:45:32.421Z,29.30
2022-08-17T11:48:42.580Z,29.17
2022-08-17T11:51:33.757Z,28.97
2022-08-17T11:54:30.698Z,28.70
2022-08-17T11:56:49.803Z,28.55
2022-08-17T11:59:41.793Z,28.94
2022-08-17T12:02:34.691Z,29.21
2022-08-17T12:05:25.271Z,29.16
2022-08-17T12:08:11.300Z,28.40
2022-08-17T12:10:51.395Z,28.13
2022-08-17T12:13:19.123Z,27.91
2022-08-17T12:15:50.375Z,27.94
2022-08-17T12:18:27.984Z,28.54
2022-08-17T12:21:19.794Z,28.48
2022-08-17T12:23:57.707Z,28.18
2022-08-17T12:26:31.596Z,28.33
2022-08-17T12:29:05.229Z,29.02
2022-08-17T12:31:43.617Z,28.90
2022-08-17T12:34:20.409Z,28.68
2022-08-17T12:36:53.369Z,28.14
2022-08-17T12:39:24.925Z,27.71
2022-08-17T12:42:01.945Z,27.65
2022-08-17T12:44:35.271Z,28.27
2022-08-17T12:47:19.406Z,28.73
2022-08-17T12:49:53.819Z,28.73
2022-08-17T12:52:25.075Z,29.23
2022-08-17T12:54:51.614Z,29.73
2022-08-17T12:57:38.371Z,28.53
2022-08-17T13:00:10.049Z,27.81
2022-08-17T13:02:47.585Z,27.76
2022-08-17T13:05:27.631Z,28.08
2022-08-17T13:07:57.290Z,28.52
2022-08-17T13:10:33.061Z,29.50
2022-08-17T13:13:05.253Z,29.06
2022-08-17T13:15:44.697Z,28.67
2022-08-17T13:18:38.978Z,28.51
2022-08-17T13:21:11.788Z,28.56
2022-08-17T13:23:38.500Z,28.58
2022-08-17T13:26:07.957Z,28.73
2022-08-17T13:28:36.766Z,28.86
2022-08-17T13:31:28.007Z,29.47
2022-08-17T13:34:31.129Z,29.32
2022-08-17T13:37:25.709Z,28.63
2022-08-17T13:40:14.573Z,28.44
2022-08-17T13:42:59.577Z,28.23
2022-08-17T13:45:36.899Z,28.27
2022-08-17T13:48:08.771Z,28.58
2022-08-17T13:50:42.929Z,28.23
2022-08-17T13:53:19.102Z,27.97
2022-08-17T13:55:55.296Z,28.03
2022-08-17T13:58:31.615Z,28.35
2022-08-17T14:01:18.790Z,28.72
2022-08-17T14:03:45.418Z,28.48
2022-08-17T14:06:23.711Z,28.26
2022-08-17T14:09:04.904Z,28.08
2022-08-17T14:11:31.528Z,28.04
2022-08-17T14:13:58.735Z,28.11
2022-08-17T14:16:25.389Z,28.32
2022-08-17T14:18:56.650Z,28.42
2022-08-17T14:21:24.092Z,28.51
2022-08-17T14:23:54.982Z,28.35
2022-08-17T14:26:21.846Z,28.66
2022-08-17T14:28:56.740Z,28.91
2022-08-17T14:31:24.017Z,29.27
2022-08-17T14:33:51.458Z,28.91
2022-08-17T14:36:18.100Z,28.57
2022-08-17T14:38:45.143Z,28.46
2022-08-17T14:41:11.840Z,28.31
2022-08-17T14:43:39.929Z,28.64
2022-08-17T14:46:06.662Z,28.67
2022-08-17T14:48:35.048Z,28.46
2022-08-17T14:51:01.624Z,28.15
2022-08-17T14:53:28.219Z,27.79
2022-08-17T14:55:54.899Z,27.48
2022-08-17T14:58:22.459Z,27.38
2022-08-17T15:00:51.019Z,27.29
2022-08-17T15:03:18.715Z,27.35
2022-08-17T15:05:46.726Z,27.41
2022-08-17T15:08:13.495Z,27.66
2022-08-17T15:10:40.182Z,27.58
2022-08-17T15:13:22.330Z,27.36
2022-08-17T15:15:49.652Z,27.25
2022-08-17T15:18:17.095Z,27.62
2022-08-17T15:20:44.522Z,27.54
2022-08-17T15:23:20.044Z,27.35
2022-08-17T15:25:48.911Z,27.12
2022-08-17T15:28:16.384Z,27.15
2022-08-17T15:30:44.874Z,27.13
2022-08-17T15:33:17.930Z,27.83
2022-08-17T15:35:45.436Z,28.28
2022-08-17T15:38:13.080Z,28.51
2022-08-17T15:40:46.163Z,28.66
2022-08-17T15:43:23.466Z,28.66
2022-08-17T15:46:17.241Z,28.75
2022-08-17T15:48:46.318Z,28.90
2022-08-17T15:51:14.603Z,29.09
2022-08-17T15:53:43.656Z,29.35
2022-08-17T15:56:11.279Z,29.06
2022-08-17T15:58:38.202Z,29.19
2022-08-17T16:01:16.975Z,28.70
2022-08-17T16:04:04.731Z,28.33
2022-08-17T16:06:42.300Z,27.96
2022-08-17T16:09:08.910Z,28.00
2022-08-17T16:11:35.514Z,28.03
2022-08-17T16:14:02.122Z,27.74
2022-08-17T16:16:31.117Z,27.57
2022-08-17T16:18:59.174Z,27.33
2022-08-17T16:21:26.680Z,27.04
2022-08-17T16:24:13.637Z,26.92
2022-08-17T16:26:42.025Z,26.89
2022-08-17T16:29:09.045Z,26.71
2022-08-17T16:31:38.806Z,26.43
2022-08-17T16:34:17.240Z,26.72
2022-08-17T16:36:53.771Z,26.93
2022-08-17T16:39:29.210Z,27.05
2022-08-17T16:41:57.153Z,27.18
2022-08-17T16:44:24.399Z,27.26
2022-08-17T16:46:51.476Z,27.26
2022-08-17T16:49:37.451Z,27.27
2022-08-17T16:52:10.556Z,27.30
2022-08-17T16:54:41.874Z,27.27
2022-08-17T16:57:08.608Z,27.19
2022-08-17T16:59:40.896Z,27.22
2022-08-17T17:02:13.086Z,27.02
2022-08-17T17:05:02.816Z,26.95
2022-08-17T17:07:54.824Z,26.97
2022-08-17T17:10:32.675Z,26.98
2022-08-17T17:13:01.571Z,26.98
2022-08-17T17:15:43.620Z,26.87
2022-08-17T17:18:12.642Z,26.77
2022-08-17T17:20:48.874Z,26.75
2022-08-17T17:23:30.240Z,26.60
2022-08-17T17:26:02.507Z,26.46
2022-08-17T17:28:48.656Z,26.31
2022-08-17T17:31:23.737Z,26.30
2022-08-17T17:33:55.619Z,26.19
2022-08-17T17:36:47.122Z,26.07
2022-08-17T17:39:41.433Z,25.95
2022-08-17T17:42:20.184Z,25.90
2022-08-17T17:44:51.400Z,25.72
2022-08-17T17:47:17.984Z,25.64
2022-08-17T17:49:48.683Z,25.56
2022-08-17T17:52:53.875Z,25.49
2022-08-17T17:55:35.336Z,25.39
2022-08-17T17:58:23.175Z,25.26
2022-08-17T18:01:17.612Z,25.19
2022-08-17T18:03:50.388Z,25.06
2022-08-17T18:06:39.822Z,24.98
2022-08-17T18:09:18.062Z,24.86
2022-08-17T18:12:00.338Z,24.75
2022-08-17T18:14:54.110Z,24.66
2022-08-17T18:17:20.768Z,24.52
2022-08-17T18:19:48.368Z,24.37
2022-08-17T18:22:24.909Z,24.27
2022-08-17T18:24:56.172Z,24.11
2022-08-17T18:27:32.060Z,24.02
2022-08-17T18:30:22.511Z,23.91
2022-08-17T18:32:49.522Z,23.81
2022-08-17T18:35:18.847Z,23.68
2022-08-17T18:37:48.741Z,23.55
2022-08-17T18:40:19.074Z,23.37
2022-08-17T18:42:58.071Z,23.18
2022-08-17T18:45:33.965Z,22.92
2022-08-17T18:48:01.019Z,22.74
2022-08-17T18:50:35.883Z,22.61
2022-08-17T18:53:33.451Z,22.48
2022-08-17T18:56:25.308Z,22.45
2022-08-17T18:59:09.144Z,22.30
2022-08-17T19:01:53.699Z,22.17
2022-08-17T19:04:37.971Z,22.01
2022-08-17T19:07:10.112Z,21.85
2022-08-17T19:09:43.098Z,21.73
2022-08-17T19:12:26.439Z,21.71
2022-08-17T19:14:56.650Z,21.74
2022-08-17T19:17:42.763Z,21.76
2022-08-17T19:20:24.103Z,21.63
2022-08-17T19:22:57.349Z,21.47
2022-08-17T19:25:31.468Z,21.26
2022-08-17T19:28:21.674Z,21.05
2022-08-17T19:30:54.968Z,20.95
2022-08-17T19:33:22.031Z,20.92
2022-08-17T19:36:09.986Z,20.86
2022-08-17T19:39:03.758Z,20.75
2022-08-17T19:42:05.879Z,20.72
2022-08-17T19:45:12.907Z,20.66
2022-08-17T19:48:12.456Z,20.54
2022-08-17T19:51:09.518Z,20.39
2022-08-17T19:54:05.315Z,20.31
2022-08-17T19:56:57.940Z,20.22
2022-08-17T19:59:53.957Z,20.16
2022-08-17T20:02:28.610Z,20.07
2022-08-17T20:04:59.925Z,20.01
2022-08-17T20:07:37.156Z,19.94
2022-08-17T20:10:11.019Z,19.89
2022-08-17T20:12:40.055Z,19.83
2022-08-17T20:15:11.926Z,19.77
2022-08-17T20:17:42.832Z,19.73
2022-08-17T20:20:19.937Z,19.69
2022-08-17T20:23:18.956Z,19.60
2022-08-17T20:26:06.245Z,19.55
2022-08-17T20:28:35.845Z,19.57
2022-08-17T20:31:25.451Z,19.55
2022-08-17T20:33:55.015Z,19.57
2022-08-17T20:36:24.761Z,19.53
2022-08-17T20:38:54.690Z,19.55
2022-08-17T20:41:24.894Z,19.52
2022-08-17T20:43:58.280Z,19.50
2022-08-17T20:46:30.828Z,19.48
2022-08-17T20:49:27.013Z,19.41
2022-08-17T20:52:10.288Z,19.36
2022-08-17T20:54:54.835Z,19.46
2022-08-17T20:57:37.176Z,19.46
2022-08-17T21:00:32.823Z,19.45
2022-08-17T21:03:24.331Z,19.43
2022-08-17T21:06:00.081Z,19.47
2022-08-17T21:08:33.286Z,19.62
2022-08-17T21:11:20.907Z,19.66
2022-08-17T21:14:23.976Z,19.79
2022-08-17T21:16:56.693Z,19.77
2022-08-17T21:19:40.667Z,19.70
2022-08-17T21:22:22.458Z,19.73
2022-08-17T21:24:57.672Z,19.96
2022-08-17T21:28:01.827Z,20.08
2022-08-17T21:30:28.346Z,20.23
2022-08-17T21:33:18.576Z,20.35
2022-08-17T21:36:11.835Z,20.41
2022-08-17T21:38:57.421Z,20.46
2022-08-17T21:41:33.789Z,20.47
2022-08-17T21:44:34.502Z,20.47
2022-08-17T21:47:21.712Z,20.47
2022-08-17T21:49:48.347Z,20.39
2022-08-17T21:52:18.055Z,20.30
2022-08-17T21:54:57.581Z,20.20
2022-08-17T21:57:30.136Z,20.18
2022-08-17T22:00:00.368Z,20.20
2022-08-17T22:02:36.112Z,20.22
2022-08-17T22:05:13.089Z,20.23
2022-08-17T22:07:53.319Z,20.22
2022-08-17T22:10:37.759Z,20.29
2022-08-17T22:13:29.418Z,20.34
2022-08-17T22:16:28.891Z,20.25
2022-08-17T22:18:58.967Z,20.17
2022-08-17T22:21:26.176Z,20.09
2022-08-17T22:24:06.553Z,20.09
2022-08-17T22:27:07.590Z,20.04
2022-08-17T22:29:53.321Z,19.98
2022-08-17T22:32:46.271Z,19.83
2022-08-17T22:35:29.249Z,19.71
2022-08-17T22:37:57.032Z,19.67
2022-08-17T22:40:34.442Z,19.49
2022-08-17T22:43:03.499Z,19.38
2022-08-17T22:45:30.411Z,19.30
2022-08-17T22:48:00.125Z,19.24
2022-08-17T22:50:29.879Z,19.20
2022-08-17T22:53:19.080Z,19.20
2022-08-17T22:56:11.485Z,19.20
2022-08-17T22:59:17.605Z,19.11
2022-08-17T23:02:05.707Z,18.99
2022-08-17T23:04:38.271Z,18.92
2022-08-17T23:07:06.528Z,18.86
2022-08-17T23:09:34.061Z,18.85
2022-08-17T23:12:00.920Z,18.83
2022-08-17T23:14:32.008Z,18.83
2022-08-17T23:17:01.660Z,18.85
2022-08-17T23:19:31.651Z,18.84
2022-08-17T23:21:59.602Z,18.82
2022-08-17T23:24:28.505Z,18.79
2022-08-17T23:26:57.280Z,18.74
2022-08-17T23:29:25.118Z,18.64
2022-08-17T23:31:52.680Z,18.61
2022-08-17T23:34:19.601Z,18.57
2022-08-17T23:36:51.322Z,18.61
2022-08-17T23:39:27.409Z,18.63
2022-08-17T23:41:59.419Z,18.86
2022-08-17T23:44:27.223Z,18.96
2022-08-17T23:46:53.970Z,18.98
2022-08-17T23:49:20.614Z,19.02
2022-08-17T23:51:48.540Z,19.13
2022-08-17T23:54:33.558Z,19.20
2022-08-17T23:57:04.832Z,19.15
2022-08-17T23:59:32.913Z,19.01
